Corning, Iowa
Current Conditions -  °F | °C
As of 6:35 PM on Monday 22 Dec 2014 (Local Time) from KCSQ Reporting Station
Unknown Precip Unknown Precip  
Wind Chill: 36°   Ceiling: 300
Heat Index: 41°   Visibility: 2mi
Dew Point: 41°   Wind: 7mph
Humidity: 100%   Direction: 130°SE
Pressure: 29.42"   Gusts: NA
Location:  40.99°N, 94.74°W
Report Text: KCSQ 230035Z AUTO 13006KT 2SM -UP OVC003 05/05 A2942 RMK AO2
Loading
Personal Weather Stations






























Interactive Weather Map New forecast layout! Learn more

10-Day Weather Forecast

Advertisements
Track Severe Weather on mobile